Time;durP1;ratioP1;P1;durP2;ratioP2;P2;SDS_P1;SDS_P2;PMS_P1;PMS_P2;Temp;Humidity;BMP_temperature;BMP_pressure;BME280_temperature;BME280_humidity;BME280_pressure;Samples;Min_cycle;Max_cycle;Signal;HPM_P1;HPM_P2
2021/05/26 00:02:26;;;;;;;;;;;10.00;99.90;;;;;;8339909;28;19978;-63
2021/05/26 00:06:26;;;;;;;;;;;9.90;99.90;;;;;;8358188;28;20047;-62
2021/05/26 00:10:27;;;;;;;;;;;9.90;99.90;;;;;;8340265;28;19909;-62
2021/05/26 00:14:27;;;;;;;;;;;9.80;99.90;;;;;;8339745;28;19918;-63
2021/05/26 00:18:28;;;;;;;;;;;9.70;99.90;;;;;;8358052;28;20442;-63
2021/05/26 00:22:28;;;;;;;;;;;9.70;99.90;;;;;;8357476;28;19995;-63
2021/05/26 00:26:29;;;;;;;;;;;9.70;99.90;;;;;;8361332;28;19967;-63
2021/05/26 00:30:32;;;;;;;;;;;9.70;99.90;;;;;;8363701;28;19909;-62
2021/05/26 00:34:32;;;;;;;;;;;9.60;99.90;;;;;;8363450;28;19915;-62
2021/05/26 00:38:33;;;;;;;;;;;9.60;99.90;;;;;;8363259;28;20518;-62
2021/05/26 00:42:33;;;;;;;;;;;9.60;99.90;;;;;;8363409;28;19916;-63
2021/05/26 00:46:40;;;;;;;;;;;9.60;99.90;;;;;;8363576;28;19919;-62
2021/05/26 00:50:41;;;;;;;;;;;9.50;99.90;;;;;;8363055;28;19970;-62
2021/05/26 00:54:41;;;;;;;;;;;9.50;99.90;;;;;;8362983;28;20260;-63
2021/05/26 00:58:41;;;;;;;;;;;9.50;99.90;;;;;;8363051;28;19997;-63
2021/05/26 01:02:42;;;;;;;;;;;9.40;99.90;;;;;;8362320;28;20399;-63
2021/05/26 01:06:43;;;;;;;;;;;9.30;99.90;;;;;;8362670;28;19917;-63
2021/05/26 01:10:44;;;;;;;;;;;9.10;99.90;;;;;;8344862;28;19915;-62
2021/05/26 01:14:44;;;;;;;;;;;9.30;99.90;;;;;;8362589;28;19909;-63
2021/05/26 01:18:45;;;;;;;;;;;9.30;99.90;;;;;;8361845;28;20007;-63
2021/05/26 01:22:45;;;;;;;;;;;9.20;99.90;;;;;;8362509;28;20283;-63
2021/05/26 01:26:46;;;;;;;;;;;9.20;99.90;;;;;;8344654;28;19919;-62
2021/05/26 01:30:47;;;;;;;;;;;9.00;99.90;;;;;;8362606;28;19909;-62
2021/05/26 01:34:48;;;;;;;;;;;9.20;99.90;;;;;;8361853;28;19915;-62
2021/05/26 01:38:48;;;;;;;;;;;9.10;99.90;;;;;;8361338;28;19916;-63
2021/05/26 01:42:49;;;;;;;;;;;9.10;99.90;;;;;;8343902;28;19909;-62
2021/05/26 01:46:49;;;;;;;;;;;9.10;99.90;;;;;;8361495;28;19913;-62
2021/05/26 01:50:50;;;;;;;;;;;8.90;99.90;;;;;;8361440;28;19963;-62
2021/05/26 01:54:51;;;;;;;;;;;8.70;99.90;;;;;;8361682;28;19912;-62
2021/05/26 01:58:52;;;;;;;;;;;8.70;99.90;;;;;;8361488;28;20007;-62
2021/05/26 02:02:52;;;;;;;;;;;8.60;99.90;;;;;;8360390;28;19923;-62
2021/05/26 02:07:00;;;;;;;;;;;8.70;99.90;;;;;;8361393;28;19920;-63
2021/05/26 02:15:20;;;;;;;;;;;8.50;99.90;;;;;;8360256;28;19943;-62
2021/05/26 02:19:20;;;;;;;;;;;8.40;99.90;;;;;;8359980;28;19913;-63
2021/05/26 02:23:21;;;;;;;;;;;8.20;99.90;;;;;;8360141;28;19913;-62
2021/05/26 02:27:21;;;;;;;;;;;8.10;99.90;;;;;;8359340;28;20354;-62
2021/05/26 02:31:22;;;;;;;;;;;8.10;99.90;;;;;;8359780;28;20409;-62
2021/05/26 02:35:22;;;;;;;;;;;8.20;99.90;;;;;;8359550;28;19956;-63
2021/05/26 02:39:22;;;;;;;;;;;8.10;99.90;;;;;;8359857;28;19913;-62
2021/05/26 02:43:24;;;;;;;;;;;8.20;99.90;;;;;;8359854;28;20000;-62
2021/05/26 02:47:24;;;;;;;;;;;7.90;99.90;;;;;;8359562;28;19913;-63
2021/05/26 02:51:25;;;;;;;;;;;8.10;99.90;;;;;;8358839;28;20011;-62
2021/05/26 02:55:26;;;;;;;;;;;8.20;99.90;;;;;;8359517;28;19916;-63
2021/05/26 02:59:27;;;;;;;;;;;8.10;99.90;;;;;;8359469;28;20008;-62
2021/05/26 03:03:27;;;;;;;;;;;8.10;99.90;;;;;;8358663;28;19909;-63
2021/05/26 03:07:27;;;;;;;;;;;7.90;99.90;;;;;;8359302;28;19913;-63
2021/05/26 03:11:28;;;;;;;;;;;7.80;99.90;;;;;;8359350;28;19944;-62
2021/05/26 03:15:28;;;;;;;;;;;7.80;99.90;;;;;;8340810;28;19916;-63
2021/05/26 03:19:29;;;;;;;;;;;7.80;99.90;;;;;;8358542;28;19924;-63
2021/05/26 03:23:29;;;;;;;;;;;7.90;99.90;;;;;;8358983;28;19910;-62
2021/05/26 03:27:37;;;;;;;;;;;8.10;99.90;;;;;;8358858;28;19924;-62
2021/05/26 03:31:37;;;;;;;;;;;8.30;99.90;;;;;;8358657;28;20438;-62
2021/05/26 03:35:38;;;;;;;;;;;8.30;99.90;;;;;;8340640;28;19955;-63
2021/05/26 03:39:39;;;;;;;;;;;8.20;99.90;;;;;;8358643;28;19959;-63
2021/05/26 03:43:39;;;;;;;;;;;8.40;99.90;;;;;;8340620;28;20371;-62
2021/05/26 03:47:40;;;;;;;;;;;8.40;99.90;;;;;;8358858;28;20007;-63
2021/05/26 03:51:40;;;;;;;;;;;8.40;99.90;;;;;;8357177;28;19920;-62
2021/05/26 03:55:41;;;;;;;;;;;8.20;99.90;;;;;;8357794;28;19913;-63
2021/05/26 03:59:41;;;;;;;;;;;8.30;99.90;;;;;;8334353;28;19913;-63
2021/05/26 04:03:42;;;;;;;;;;;8.50;99.90;;;;;;8341408;28;20007;-62
2021/05/26 04:07:42;;;;;;;;;;;8.80;99.90;;;;;;8365139;28;19978;-62
2021/05/26 04:11:43;;;;;;;;;;;8.70;99.90;;;;;;8341163;28;20388;-62
2021/05/26 04:15:43;;;;;;;;;;;8.70;99.90;;;;;;8331433;28;19917;-63
2021/05/26 04:19:44;;;;;;;;;;;8.80;99.90;;;;;;8331595;28;19909;-63
2021/05/26 04:23:44;;;;;;;;;;;8.70;99.90;;;;;;8331446;28;20302;-63
2021/05/26 04:27:46;;;;;;;;;;;8.80;99.90;;;;;;8347081;28;19948;-63
2021/05/26 04:31:46;;;;;;;;;;;8.80;99.90;;;;;;8364256;28;19913;-63
2021/05/26 04:35:47;;;;;;;;;;;9.60;99.90;;;;;;8363595;28;19909;-63
2021/05/26 04:39:47;;;;;;;;;;;9.80;99.90;;;;;;8362810;28;20294;-63
2021/05/26 04:43:48;;;;;;;;;;;9.70;99.90;;;;;;8362943;28;20376;-62
2021/05/26 04:47:48;;;;;;;;;;;9.50;99.90;;;;;;8361770;28;20634;-63
2021/05/26 04:51:49;;;;;;;;;;;9.30;99.90;;;;;;8362019;28;20387;-63
2021/05/26 04:55:49;;;;;;;;;;;9.40;99.90;;;;;;8361922;28;19916;-63
2021/05/26 04:59:50;;;;;;;;;;;9.40;99.90;;;;;;8363355;28;19916;-63
2021/05/26 05:03:50;;;;;;;;;;;9.40;99.90;;;;;;8336714;28;19917;-64
2021/05/26 05:07:51;;;;;;;;;;;9.60;99.90;;;;;;8352310;28;19956;-63
2021/05/26 05:11:51;;;;;;;;;;;9.70;99.90;;;;;;8327240;28;19920;-63
2021/05/26 05:15:52;;;;;;;;;;;9.60;99.90;;;;;;8344357;28;19920;-68
2021/05/26 05:19:52;;;;;;;;;;;9.80;99.90;;;;;;8345396;28;19910;-68
2021/05/26 05:23:53;;;;;;;;;;;10.00;99.90;;;;;;8356619;28;20383;-68
2021/05/26 05:27:53;;;;;;;;;;;10.20;99.90;;;;;;8362599;28;19916;-67
2021/05/26 05:31:53;;;;;;;;;;;10.10;99.90;;;;;;8338488;28;19913;-69
2021/05/26 05:35:54;;;;;;;;;;;10.30;99.90;;;;;;8358526;28;19958;-63
2021/05/26 05:39:55;;;;;;;;;;;10.50;99.90;;;;;;8361800;28;19913;-62
2021/05/26 05:43:55;;;;;;;;;;;10.50;99.90;;;;;;8361640;28;20360;-63
2021/05/26 05:47:56;;;;;;;;;;;10.50;99.90;;;;;;8361605;28;20295;-62
2021/05/26 05:51:56;;;;;;;;;;;10.50;99.90;;;;;;8361856;28;20008;-62
2021/05/26 05:56:01;;;;;;;;;;;10.50;99.90;;;;;;8343254;28;19909;-62
2021/05/26 06:00:03;;;;;;;;;;;10.60;99.90;;;;;;8361366;28;19913;-62
2021/05/26 06:04:03;;;;;;;;;;;10.80;99.90;;;;;;8359455;28;19924;-63
2021/05/26 06:08:04;;;;;;;;;;;11.10;99.90;;;;;;8360349;28;20284;-63
2021/05/26 06:12:05;;;;;;;;;;;11.30;99.90;;;;;;8360431;28;19924;-63
2021/05/26 06:16:05;;;;;;;;;;;11.50;99.90;;;;;;8341667;28;19917;-62
2021/05/26 06:20:07;;;;;;;;;;;11.60;99.90;;;;;;8355389;28;19914;-63
2021/05/26 06:24:07;;;;;;;;;;;11.80;99.90;;;;;;8357328;28;20291;-62
2021/05/26 06:28:09;;;;;;;;;;;11.90;99.90;;;;;;8346163;28;19959;-63
2021/05/26 06:32:09;;;;;;;;;;;11.80;99.90;;;;;;8302318;28;19928;-63
2021/05/26 06:36:10;;;;;;;;;;;12.00;99.90;;;;;;8356791;28;19913;-63
2021/05/26 06:40:11;;;;;;;;;;;12.20;99.90;;;;;;8359379;28;19909;-62
2021/05/26 06:44:11;;;;;;;;;;;12.10;99.90;;;;;;8350444;28;20316;-62
2021/05/26 06:48:12;;;;;;;;;;;12.00;99.90;;;;;;8347943;28;20399;-62
2021/05/26 06:52:12;;;;;;;;;;;11.80;99.90;;;;;;8350475;28;20360;-62
2021/05/26 06:56:13;;;;;;;;;;;11.90;99.90;;;;;;8332396;28;20435;-63
2021/05/26 07:00:14;;;;;;;;;;;12.00;99.90;;;;;;8343666;28;20046;-64
2021/05/26 07:04:14;;;;;;;;;;;12.10;99.90;;;;;;8357959;28;19943;-63
2021/05/26 07:08:15;;;;;;;;;;;12.40;99.90;;;;;;8335598;28;19923;-62
2021/05/26 07:12:15;;;;;;;;;;;12.40;99.90;;;;;;8338288;28;19913;-63
2021/05/26 07:16:16;;;;;;;;;;;12.50;99.90;;;;;;8325945;28;19931;-64
2021/05/26 07:20:17;;;;;;;;;;;12.60;99.90;;;;;;8339047;28;19913;-63
2021/05/26 07:24:17;;;;;;;;;;;12.60;99.90;;;;;;8356260;28;19913;-63
2021/05/26 07:28:18;;;;;;;;;;;12.60;99.90;;;;;;8358018;28;19913;-63
2021/05/26 07:32:19;;;;;;;;;;;12.80;99.90;;;;;;8357094;28;19917;-63
2021/05/26 07:36:19;;;;;;;;;;;13.20;99.90;;;;;;8363977;28;19913;-62
2021/05/26 07:40:20;;;;;;;;;;;13.20;99.90;;;;;;8367222;28;20311;-63
2021/05/26 07:44:20;;;;;;;;;;;13.10;99.90;;;;;;8348690;28;19917;-62
2021/05/26 07:48:21;;;;;;;;;;;13.30;99.90;;;;;;8343873;28;19928;-63
2021/05/26 07:52:21;;;;;;;;;;;13.40;99.90;;;;;;8362644;28;19979;-64
2021/05/26 07:56:22;;;;;;;;;;;13.60;99.90;;;;;;8334290;28;19917;-64
2021/05/26 08:00:22;;;;;;;;;;;14.00;99.90;;;;;;8342100;28;19924;-63
2021/05/26 08:04:23;;;;;;;;;;;14.10;99.90;;;;;;8367373;28;19916;-63
2021/05/26 08:08:23;;;;;;;;;;;14.10;99.90;;;;;;8365472;28;19955;-63
2021/05/26 08:12:24;;;;;;;;;;;14.10;99.90;;;;;;8349298;28;19959;-63
2021/05/26 08:16:25;;;;;;;;;;;14.50;99.90;;;;;;8367183;28;19932;-63
2021/05/26 08:20:27;;;;;;;;;;;14.50;99.90;;;;;;8368276;28;20406;-63
2021/05/26 08:24:27;;;;;;;;;;;14.50;99.90;;;;;;8363840;28;20406;-63
2021/05/26 08:28:28;;;;;;;;;;;14.20;99.90;;;;;;8321623;28;19971;-63
2021/05/26 08:32:29;;;;;;;;;;;14.60;99.90;;;;;;8340354;28;19913;-64
2021/05/26 08:36:29;;;;;;;;;;;15.00;99.90;;;;;;8357801;28;20277;-65
2021/05/26 08:40:30;;;;;;;;;;;15.50;99.90;;;;;;8368274;28;19916;-63
2021/05/26 08:44:32;;;;;;;;;;;15.30;99.90;;;;;;8368565;28;19909;-64
2021/05/26 08:48:32;;;;;;;;;;;15.10;99.90;;;;;;8346093;28;19925;-63
2021/05/26 08:52:33;;;;;;;;;;;15.00;99.90;;;;;;8363303;28;20287;-64
2021/05/26 08:56:34;;;;;;;;;;;14.60;99.90;;;;;;8362546;28;20290;-64
2021/05/26 09:00:34;;;;;;;;;;;14.80;99.90;;;;;;8363524;28;19913;-64
2021/05/26 09:04:35;;;;;;;;;;;14.80;99.90;;;;;;8360020;28;19917;-64
2021/05/26 09:08:44;;;;;;;;;;;15.20;99.90;;;;;;8329601;28;19925;-64
2021/05/26 09:12:45;;;;;;;;;;;15.50;99.90;;;;;;8350520;28;19944;-64
2021/05/26 09:16:46;;;;;;;;;;;15.60;99.90;;;;;;8354007;28;20387;-64
2021/05/26 09:20:46;;;;;;;;;;;15.40;99.90;;;;;;8344471;28;20333;-64
2021/05/26 09:24:48;;;;;;;;;;;15.00;99.90;;;;;;8339241;28;19913;-64
2021/05/26 09:28:48;;;;;;;;;;;14.80;99.90;;;;;;8338740;28;19913;-64
2021/05/26 09:32:49;;;;;;;;;;;14.90;99.90;;;;;;8344675;28;20406;-64
2021/05/26 09:36:49;;;;;;;;;;;14.70;99.90;;;;;;8343211;28;19913;-64
2021/05/26 09:40:51;;;;;;;;;;;14.50;99.90;;;;;;8360233;28;20014;-64
2021/05/26 09:45:11;;;;;;;;;;;14.70;99.90;;;;;;8360114;28;19909;-64
2021/05/26 09:49:15;;;;;;;;;;;14.70;99.90;;;;;;8360559;28;19940;-64
2021/05/26 09:53:16;;;;;;;;;;;14.60;99.90;;;;;;8360321;28;19964;-63
2021/05/26 09:57:17;;;;;;;;;;;14.70;99.90;;;;;;8359439;28;20328;-64
2021/05/26 10:01:17;;;;;;;;;;;14.30;99.90;;;;;;8353916;28;19920;-65
2021/05/26 10:05:21;;;;;;;;;;;14.50;99.90;;;;;;8339381;28;19976;-64
2021/05/26 10:09:24;;;;;;;;;;;14.50;99.90;;;;;;8337061;28;20693;-64
2021/05/26 10:13:26;;;;;;;;;;;14.60;99.90;;;;;;8330655;28;19921;-65
2021/05/26 10:17:34;;;;;;;;;;;14.50;99.90;;;;;;8327874;28;20410;-64
2021/05/26 10:21:35;;;;;;;;;;;14.60;99.90;;;;;;8327698;28;19963;-64
2021/05/26 10:25:40;;;;;;;;;;;14.60;99.90;;;;;;8326959;28;19924;-64
2021/05/26 10:29:42;;;;;;;;;;;14.50;99.90;;;;;;8335420;28;19956;-64
2021/05/26 10:33:49;;;;;;;;;;;14.90;99.90;;;;;;8344221;28;19939;-64
2021/05/26 10:37:57;;;;;;;;;;;15.00;99.90;;;;;;8318524;28;19908;-64
2021/05/26 10:41:58;;;;;;;;;;;14.80;99.90;;;;;;8337280;28;19935;-64
2021/05/26 10:46:00;;;;;;;;;;;15.00;99.90;;;;;;8329560;28;19925;-64
2021/05/26 10:50:02;;;;;;;;;;;15.20;99.90;;;;;;8351186;28;20430;-65
2021/05/26 10:54:02;;;;;;;;;;;14.90;99.90;;;;;;8350775;28;19921;-65
2021/05/26 10:58:09;;;;;;;;;;;14.70;99.90;;;;;;8358447;28;19921;-65
2021/05/26 11:02:15;;;;;;;;;;;14.50;99.90;;;;;;8358223;28;19917;-63
2021/05/26 11:06:19;;;;;;;;;;;14.30;99.90;;;;;;8358349;28;20382;-64
2021/05/26 11:10:24;;;;;;;;;;;14.20;99.90;;;;;;8354891;28;19913;-64
2021/05/26 11:14:25;;;;;;;;;;;14.40;99.90;;;;;;8340205;28;19961;-64
2021/05/26 11:22:26;;;;;;;;;;;15.00;99.90;;;;;;8358020;28;19931;-64
2021/05/26 11:26:33;;;;;;;;;;;15.20;99.90;;;;;;8357756;28;19982;-63
2021/05/26 11:30:34;;;;;;;;;;;15.20;99.90;;;;;;8357259;28;19962;-64
2021/05/26 11:34:35;;;;;;;;;;;15.30;99.90;;;;;;8357386;28;19944;-65
2021/05/26 11:38:35;;;;;;;;;;;15.20;99.90;;;;;;8346612;28;19948;-64
2021/05/26 11:42:36;;;;;;;;;;;15.40;99.90;;;;;;8350917;28;19979;-65
2021/05/26 11:46:36;;;;;;;;;;;15.50;99.90;;;;;;8356457;28;20391;-64
2021/05/26 11:50:38;;;;;;;;;;;15.30;99.90;;;;;;8357235;28;19948;-64
2021/05/26 11:54:54;;;;;;;;;;;15.20;99.90;;;;;;8356931;28;20359;-64
2021/05/26 11:58:55;;;;;;;;;;;14.90;99.90;;;;;;8352299;28;19920;-64
2021/05/26 12:02:56;;;;;;;;;;;14.40;99.90;;;;;;8353351;28;19920;-64
2021/05/26 12:06:59;;;;;;;;;;;14.60;99.90;;;;;;8324789;28;19920;-64
2021/05/26 12:11:01;;;;;;;;;;;14.70;99.90;;;;;;8339086;28;19919;-64
2021/05/26 12:15:02;;;;;;;;;;;14.50;99.90;;;;;;8357374;28;20633;-65
2021/05/26 12:19:02;;;;;;;;;;;14.30;99.90;;;;;;8357433;28;19913;-64
2021/05/26 12:23:03;;;;;;;;;;;14.00;99.90;;;;;;8361501;28;20449;-64
2021/05/26 12:27:03;;;;;;;;;;;13.80;99.90;;;;;;8363973;28;19916;-65
2021/05/26 12:31:11;;;;;;;;;;;13.70;99.90;;;;;;8357682;28;19920;-63
2021/05/26 12:35:12;;;;;;;;;;;13.40;99.90;;;;;;8342166;28;19924;-64
2021/05/26 12:39:12;;;;;;;;;;;13.20;99.90;;;;;;8359823;28;20370;-64
2021/05/26 12:43:24;;;;;;;;;;;13.30;99.90;;;;;;8362789;28;19913;-64
2021/05/26 12:47:27;;;;;;;;;;;13.40;99.90;;;;;;8341177;28;19920;-64
2021/05/26 12:51:27;;;;;;;;;;;13.40;99.90;;;;;;8361099;28;19924;-64
2021/05/26 12:55:31;;;;;;;;;;;13.20;99.90;;;;;;8330074;28;19999;-64
2021/05/26 12:59:32;;;;;;;;;;;13.30;99.90;;;;;;8355626;28;20398;-65
2021/05/26 13:03:34;;;;;;;;;;;13.40;99.90;;;;;;8361908;28;20379;-65
2021/05/26 13:07:43;;;;;;;;;;;13.70;99.90;;;;;;8337605;28;20320;-63
2021/05/26 13:11:47;;;;;;;;;;;14.30;99.90;;;;;;8311775;28;19967;-65
2021/05/26 13:15:58;;;;;;;;;;;14.30;99.90;;;;;;8343637;28;19963;-64
2021/05/26 13:19:58;;;;;;;;;;;14.00;99.90;;;;;;8344978;28;19913;-65
2021/05/26 13:23:59;;;;;;;;;;;13.70;99.90;;;;;;8347403;28;19912;-64
2021/05/26 13:28:00;;;;;;;;;;;13.80;99.90;;;;;;8358976;28;20034;-65
2021/05/26 13:32:01;;;;;;;;;;;13.90;99.90;;;;;;8349308;28;20390;-64
2021/05/26 13:36:01;;;;;;;;;;;14.10;99.90;;;;;;8318637;28;19917;-64
2021/05/26 13:40:02;;;;;;;;;;;14.10;99.90;;;;;;8349557;28;19921;-64
2021/05/26 13:44:02;;;;;;;;;;;14.10;99.90;;;;;;8349641;28;19927;-65
2021/05/26 13:48:06;;;;;;;;;;;14.00;99.90;;;;;;8343936;28;19923;-64
2021/05/26 13:52:06;;;;;;;;;;;14.00;99.90;;;;;;8357342;28;19916;-63
2021/05/26 13:56:09;;;;;;;;;;;14.10;99.90;;;;;;8359778;28;19924;-65
2021/05/26 14:00:10;;;;;;;;;;;14.10;99.90;;;;;;8360322;28;19962;-64
2021/05/26 14:04:11;;;;;;;;;;;14.00;99.90;;;;;;8333670;28;19917;-63
2021/05/26 14:08:14;;;;;;;;;;;14.00;99.90;;;;;;8355745;28;20308;-63
2021/05/26 14:12:15;;;;;;;;;;;14.10;99.90;;;;;;8334923;28;19920;-63
2021/05/26 14:16:17;;;;;;;;;;;13.90;99.90;;;;;;8335595;28;20298;-63
2021/05/26 14:20:18;;;;;;;;;;;13.80;99.90;;;;;;8345939;28;20380;-64
2021/05/26 14:24:18;;;;;;;;;;;13.70;99.90;;;;;;8343945;28;19913;-63
2021/05/26 14:28:19;;;;;;;;;;;13.50;99.90;;;;;;8334632;28;19917;-64
2021/05/26 14:32:19;;;;;;;;;;;13.20;99.90;;;;;;8326763;28;19909;-64
2021/05/26 14:36:22;;;;;;;;;;;13.10;99.90;;;;;;8358141;28;20520;-64
2021/05/26 14:40:23;;;;;;;;;;;13.30;99.90;;;;;;8355050;28;20452;-64
2021/05/26 14:44:23;;;;;;;;;;;13.40;99.90;;;;;;8334435;28;19917;-64
2021/05/26 14:48:24;;;;;;;;;;;13.40;99.90;;;;;;8341387;28;20610;-64
2021/05/26 14:52:24;;;;;;;;;;;13.40;99.90;;;;;;8349690;28;19975;-64
2021/05/26 14:56:25;;;;;;;;;;;13.40;99.90;;;;;;8323487;28;20011;-64
2021/05/26 15:00:26;;;;;;;;;;;13.30;99.90;;;;;;8339890;28;19913;-64
2021/05/26 15:04:26;;;;;;;;;;;13.40;99.90;;;;;;8340179;28;19991;-64
2021/05/26 15:08:27;;;;;;;;;;;13.20;99.90;;;;;;8357517;28;19921;-64
2021/05/26 15:12:27;;;;;;;;;;;13.20;99.90;;;;;;8341370;28;20097;-64
2021/05/26 15:16:28;;;;;;;;;;;13.10;99.90;;;;;;8342100;28;19926;-64
2021/05/26 15:20:28;;;;;;;;;;;13.10;99.90;;;;;;8338894;28;20008;-64
2021/05/26 15:24:29;;;;;;;;;;;13.20;99.90;;;;;;8313662;28;19966;-64
2021/05/26 15:28:29;;;;;;;;;;;13.30;99.90;;;;;;8328986;28;19923;-63
2021/05/26 15:32:32;;;;;;;;;;;13.20;99.90;;;;;;8332229;28;19920;-63
2021/05/26 15:36:37;;;;;;;;;;;13.20;99.90;;;;;;8341397;28;20021;-65
2021/05/26 15:40:38;;;;;;;;;;;13.10;99.90;;;;;;8317538;28;19939;-63
2021/05/26 15:44:38;;;;;;;;;;;13.20;99.90;;;;;;8358318;28;20384;-63
2021/05/26 15:48:39;;;;;;;;;;;13.10;99.90;;;;;;8358043;28;19966;-63
2021/05/26 15:52:40;;;;;;;;;;;12.80;99.90;;;;;;8351071;28;19916;-64
2021/05/26 15:56:40;;;;;;;;;;;12.70;99.90;;;;;;8354511;28;19967;-61
2021/05/26 16:00:41;;;;;;;;;;;12.70;99.90;;;;;;8365080;28;19909;-63
2021/05/26 16:04:41;;;;;;;;;;;12.60;99.90;;;;;;8364562;28;19931;-63
2021/05/26 16:08:42;;;;;;;;;;;12.60;99.90;;;;;;8364860;28;19968;-62
2021/05/26 16:12:42;;;;;;;;;;;12.70;99.90;;;;;;8364519;28;19920;-63
2021/05/26 16:16:43;;;;;;;;;;;12.90;99.90;;;;;;8364007;28;19917;-63
2021/05/26 16:20:44;;;;;;;;;;;12.70;99.90;;;;;;8363502;28;20003;-62
2021/05/26 16:24:45;;;;;;;;;;;12.70;99.90;;;;;;8359194;28;19917;-70
2021/05/26 16:28:47;;;;;;;;;;;12.70;99.90;;;;;;8336971;28;22796;-70
2021/05/26 16:32:48;;;;;;;;;;;12.70;99.90;;;;;;8348362;28;20019;-70
2021/05/26 16:36:50;;;;;;;;;;;12.80;99.90;;;;;;8323978;28;20296;-63
2021/05/26 16:40:50;;;;;;;;;;;12.90;99.90;;;;;;8337570;28;21477;-64
2021/05/26 16:44:51;;;;;;;;;;;12.80;99.90;;;;;;8348245;28;19920;-63
2021/05/26 16:48:51;;;;;;;;;;;12.40;99.90;;;;;;8345543;28;20410;-63
2021/05/26 16:52:52;;;;;;;;;;;12.30;99.90;;;;;;8322984;28;20023;-64
2021/05/26 16:56:55;;;;;;;;;;;12.40;99.90;;;;;;8321275;28;19935;-64
2021/05/26 17:00:55;;;;;;;;;;;12.30;99.90;;;;;;8312390;28;19920;-64
2021/05/26 17:04:56;;;;;;;;;;;12.30;99.90;;;;;;8342832;28;21488;-63
2021/05/26 17:08:57;;;;;;;;;;;12.40;99.90;;;;;;8338626;28;19925;-63
2021/05/26 17:12:58;;;;;;;;;;;12.30;99.90;;;;;;8334180;28;19928;-65
2021/05/26 17:16:58;;;;;;;;;;;12.20;99.90;;;;;;8342766;28;20023;-65
2021/05/26 17:20:59;;;;;;;;;;;12.30;99.90;;;;;;8338228;28;19920;-65
2021/05/26 17:24:59;;;;;;;;;;;12.20;99.90;;;;;;8329885;28;19913;-65
2021/05/26 17:29:05;;;;;;;;;;;12.00;99.90;;;;;;8322159;28;19968;-65
2021/05/26 17:33:05;;;;;;;;;;;11.90;99.90;;;;;;8332737;28;19913;-65
2021/05/26 17:37:06;;;;;;;;;;;11.90;99.90;;;;;;8321123;28;20399;-65
2021/05/26 17:41:06;;;;;;;;;;;11.80;99.90;;;;;;8342225;28;19956;-65
2021/05/26 17:45:07;;;;;;;;;;;11.90;99.90;;;;;;8338498;28;19952;-65
2021/05/26 17:49:08;;;;;;;;;;;11.80;99.90;;;;;;8326779;28;20358;-64
2021/05/26 17:53:09;;;;;;;;;;;11.80;99.90;;;;;;8344251;28;19913;-65
2021/05/26 17:57:09;;;;;;;;;;;11.80;99.90;;;;;;8341381;28;19925;-65
2021/05/26 18:01:10;;;;;;;;;;;11.80;99.90;;;;;;8346158;28;19916;-65
2021/05/26 18:05:11;;;;;;;;;;;11.80;99.90;;;;;;8315684;28;19920;-63
2021/05/26 18:09:11;;;;;;;;;;;11.70;99.90;;;;;;8325472;28;20512;-64
2021/05/26 18:13:13;;;;;;;;;;;11.70;99.90;;;;;;8346679;28;19921;-64
2021/05/26 18:17:14;;;;;;;;;;;11.70;99.90;;;;;;8347290;28;19986;-64
2021/05/26 18:21:14;;;;;;;;;;;11.70;99.90;;;;;;8318906;28;19917;-64
2021/05/26 18:25:16;;;;;;;;;;;11.70;99.90;;;;;;8326830;28;19917;-64
2021/05/26 18:29:16;;;;;;;;;;;11.60;99.90;;;;;;8344720;28;20274;-64
2021/05/26 18:33:17;;;;;;;;;;;11.60;99.90;;;;;;8316086;28;19921;-66
2021/05/26 18:37:18;;;;;;;;;;;11.60;99.90;;;;;;8311522;28;19924;-66
2021/05/26 18:41:18;;;;;;;;;;;11.50;99.90;;;;;;8308581;28;19917;-66
2021/05/26 18:45:21;;;;;;;;;;;11.50;99.90;;;;;;8319274;28;19914;-66
2021/05/26 18:49:21;;;;;;;;;;;11.40;99.90;;;;;;8330502;28;19928;-66
2021/05/26 18:53:22;;;;;;;;;;;11.50;99.90;;;;;;8338122;28;20591;-66
2021/05/26 18:57:23;;;;;;;;;;;11.40;99.90;;;;;;8327670;28;20012;-66
2021/05/26 19:01:23;;;;;;;;;;;11.40;99.90;;;;;;8335173;28;20415;-66
2021/05/26 19:05:25;;;;;;;;;;;11.30;99.90;;;;;;8316298;28;19928;-66
2021/05/26 19:09:25;;;;;;;;;;;11.30;99.90;;;;;;8343043;28;19921;-67
2021/05/26 19:13:26;;;;;;;;;;;11.30;99.90;;;;;;8340031;28;19951;-66
2021/05/26 19:17:26;;;;;;;;;;;11.20;99.90;;;;;;8320187;28;19920;-66
2021/05/26 19:21:27;;;;;;;;;;;11.10;99.90;;;;;;8335042;28;19912;-66
2021/05/26 19:25:28;;;;;;;;;;;11.10;99.90;;;;;;8340968;28;19920;-66
2021/05/26 19:29:28;;;;;;;;;;;11.00;99.90;;;;;;8342719;28;19928;-72
2021/05/26 19:33:29;;;;;;;;;;;11.00;99.90;;;;;;8323163;28;19924;-74
2021/05/26 19:37:29;;;;;;;;;;;10.50;99.90;;;;;;8345205;28;19917;-71
2021/05/26 19:41:30;;;;;;;;;;;10.10;99.90;;;;;;8340902;28;19924;-72
2021/05/26 19:45:31;;;;;;;;;;;10.10;99.90;;;;;;8346450;28;19920;-74
2021/05/26 19:49:32;;;;;;;;;;;10.00;99.90;;;;;;8334618;28;19924;-72
2021/05/26 19:53:32;;;;;;;;;;;9.80;99.90;;;;;;8349011;28;19920;-66
2021/05/26 19:57:34;;;;;;;;;;;9.70;99.90;;;;;;8321361;28;19913;-65
2021/05/26 20:01:34;;;;;;;;;;;9.60;99.90;;;;;;8333834;28;19913;-65
2021/05/26 20:05:35;;;;;;;;;;;9.50;99.90;;;;;;8334207;28;19921;-65
2021/05/26 20:09:35;;;;;;;;;;;9.60;99.90;;;;;;8320493;28;19963;-65
2021/05/26 20:13:36;;;;;;;;;;;9.60;99.90;;;;;;8351573;28;19917;-65
2021/05/26 20:17:36;;;;;;;;;;;9.40;99.90;;;;;;8335715;28;20052;-65
2021/05/26 20:21:37;;;;;;;;;;;9.50;99.90;;;;;;8347493;28;19919;-66
2021/05/26 20:25:38;;;;;;;;;;;9.40;99.90;;;;;;8334757;28;19932;-65
2021/05/26 20:29:40;;;;;;;;;;;9.60;99.90;;;;;;8351963;28;19917;-66
2021/05/26 20:33:40;;;;;;;;;;;9.50;99.90;;;;;;8350002;28;19917;-66
2021/05/26 20:37:42;;;;;;;;;;;9.40;99.90;;;;;;8350905;28;19976;-65
2021/05/26 20:41:43;;;;;;;;;;;9.60;99.90;;;;;;8334574;28;20390;-65
2021/05/26 20:45:44;;;;;;;;;;;9.50;99.90;;;;;;8357429;28;19944;-65
2021/05/26 20:49:44;;;;;;;;;;;9.70;99.90;;;;;;8358535;28;19920;-65
2021/05/26 20:53:45;;;;;;;;;;;9.60;99.90;;;;;;8357768;28;19959;-65
2021/05/26 20:57:46;;;;;;;;;;;9.50;99.90;;;;;;8357731;28;19912;-65
2021/05/26 21:01:46;;;;;;;;;;;9.40;99.90;;;;;;8358026;28;19944;-65
2021/05/26 21:05:47;;;;;;;;;;;9.60;99.90;;;;;;8344895;28;19920;-65
2021/05/26 21:09:47;;;;;;;;;;;9.70;99.90;;;;;;8322288;28;19998;-65
2021/05/26 21:13:48;;;;;;;;;;;9.60;99.90;;;;;;8340856;28;19913;-65
2021/05/26 21:17:48;;;;;;;;;;;9.50;99.90;;;;;;8340829;28;19968;-65
2021/05/26 21:21:49;;;;;;;;;;;9.40;99.90;;;;;;8339686;28;19913;-65
2021/05/26 21:25:51;;;;;;;;;;;9.70;99.90;;;;;;8339795;28;19913;-65
2021/05/26 21:29:51;;;;;;;;;;;9.60;99.90;;;;;;8340025;28;19924;-65
2021/05/26 21:33:52;;;;;;;;;;;9.40;99.90;;;;;;8335397;28;19956;-65
2021/05/26 21:37:54;;;;;;;;;;;9.50;99.90;;;;;;8338232;28;20005;-65
2021/05/26 21:41:55;;;;;;;;;;;9.50;99.90;;;;;;8340430;28;20007;-65
2021/05/26 21:45:55;;;;;;;;;;;9.50;99.90;;;;;;8340392;28;19970;-65
2021/05/26 21:49:55;;;;;;;;;;;9.40;99.90;;;;;;8339989;28;20015;-65
2021/05/26 21:53:56;;;;;;;;;;;9.40;99.90;;;;;;8349896;28;20299;-65
2021/05/26 21:57:57;;;;;;;;;;;9.20;99.90;;;;;;8326883;28;19913;-64
2021/05/26 22:01:57;;;;;;;;;;;9.30;99.90;;;;;;8307011;28;20391;-65
2021/05/26 22:05:58;;;;;;;;;;;9.30;99.90;;;;;;8334261;28;19971;-65
2021/05/26 22:09:58;;;;;;;;;;;9.30;99.90;;;;;;8357084;28;19927;-65
2021/05/26 22:13:59;;;;;;;;;;;9.20;99.90;;;;;;8339531;28;19920;-65
2021/05/26 22:17:59;;;;;;;;;;;9.20;99.90;;;;;;8339308;28;20410;-65
2021/05/26 22:22:00;;;;;;;;;;;9.00;99.90;;;;;;8357046;28;19913;-65
2021/05/26 22:26:02;;;;;;;;;;;9.00;99.90;;;;;;8356599;28;19920;-65
2021/05/26 22:30:04;;;;;;;;;;;9.20;99.90;;;;;;8338723;28;19917;-65
2021/05/26 22:34:04;;;;;;;;;;;9.10;99.90;;;;;;8356681;28;19912;-65
2021/05/26 22:38:05;;;;;;;24.13;13.13;;;9.10;99.90;;;;;;8355082;28;20942;-65
2021/05/26 22:42:06;;;;;;;;;;;9.30;99.90;;;;;;8337756;28;20025;-65
2021/05/26 22:50:07;;;;;;;;;;;9.20;99.90;;;;;;8356498;28;19909;-64
2021/05/26 22:54:07;;;;;;;;;;;9.00;99.90;;;;;;8355883;28;19916;-65
2021/05/26 22:58:08;;;;;;;;;;;8.90;99.90;;;;;;8356072;28;19919;-65
2021/05/26 23:02:08;;;;;;;;;;;9.00;99.90;;;;;;8355831;28;19917;-64
2021/05/26 23:06:10;;;;;;;;;;;9.10;99.90;;;;;;8355375;28;19920;-65
2021/05/26 23:10:11;;;;;;;;;;;8.90;99.90;;;;;;8355757;28;20272;-65
2021/05/26 23:14:11;;;;;;;;;;;9.00;99.90;;;;;;8356247;28;19913;-65
2021/05/26 23:18:12;;;;;;;;;;;9.10;99.90;;;;;;8355518;28;19920;-65
2021/05/26 23:22:14;;;;;;;;;;;9.00;99.90;;;;;;8356010;28;19913;-65
2021/05/26 23:26:14;;;;;;;;;;;8.90;99.90;;;;;;8355597;28;20294;-65
2021/05/26 23:30:15;;;;;;;;;;;8.80;99.90;;;;;;8337602;28;19960;-65
2021/05/26 23:34:16;;;;;;;;;;;8.90;99.90;;;;;;8355426;28;19913;-65
2021/05/26 23:38:16;;;;;;;;;;;8.80;99.90;;;;;;8355706;28;20375;-65
2021/05/26 23:42:17;;;;;;;;;;;8.80;99.90;;;;;;8337234;28;19909;-65